Weather observations for the past three days for
Stockton, Stockton Metropolitan Airport
Metric (Imperial)
Date Time (pdt) Wind (kph) Vis. (km) Weather Sky Cond. Temperature (ºC) Relative Humidity Wind Chill (°C) Heat Index (°C) Pressure Precipitation (cm)
Air Dwpt 6 hour altimeter (cm) sea level (mb) 1 hr 3 hr 6 hr
Max. Min.
03 18:55 W 24 16.09 A Few Clouds FEW039 18.3 10.6 61% 75.87 1011.4
03 17:55 W 24 16.09 Fair CLR 20.6 11.1 55% 75.84 1011.2
03 16:55 W 19 G 37 16.09 Fair CLR 21.7 11.7 22.8 18.9 53% 75.84 1010.9
03 15:55 W 13 16.09 Partly Cloudy SCT047 22.2 11.7 52% 75.84 1011.1
03 14:55 SW 13 G 26 16.09 Fair CLR 21.1 11.1 53% 75.87 1011.4
03 13:55 W 15 16.09 Mostly Cloudy BKN046 21.7 11.7 53% 75.9 1011.8
03 12:55 W 15 G 30 16.09 A Few Clouds FEW041 21.1 11.1 53% 75.9 1011.7
03 11:55 W 19 G 33 16.09 Partly Cloudy SCT038 20.6 11.1 55% 75.92 1012.2
03 10:55 NW 17 16.09 A Few Clouds FEW038 18.9 11.1 18.9 12.2 61% 75.95 1012.3
03 09:55 W 19 16.09 A Few Clouds FEW025 16.1 11.1 72% 75.92 1012.3
03 08:55 W 15 16.09 A Few Clouds FEW120 15.6 11.7 78% 75.92 1012.0
03 07:55 NW 19 16.09 Fair CLR 13.9 11.1 83% 75.87 1011.4
03 06:55 NW 15 16.09 Fair CLR 12.8 11.1 90% 75.82 1010.8
03 05:55 NW 15 16.09 Fair CLR 12.2 11.1 93% 75.77 1010.0
03 04:55 NW 11 16.09 Fair CLR 12.2 11.1 13.3 12.2 93% 75.74 1009.7
03 03:55 NW 13 16.09 Fair CLR 12.8 11.1 90% 75.74 1009.8
03 02:55 NW 15 16.09 Fair CLR 12.8 11.7 93% 75.74 1009.6
03 01:55 NW 11 16.09 Fair CLR 12.8 11.7 93% 75.77 1009.9
03 00:55 N 9 16.09 Fair CLR 12.8 11.7 93% 75.79 1010.3
02 23:55 NW 13 16.09 Fair CLR 12.8 11.7 93% 75.82 1010.6
02 22:55 NW 11 16.09 Fair CLR 13.3 11.1 23.3 13.3 87% 75.82 1010.9
02 21:55 NW 19 16.09 Fair CLR 14.4 11.1 81% 75.82 1010.7
02 20:55 NW 20 16.09 Fair CLR 15.6 11.7 78% 75.77 1010.2
02 19:55 NW 17 16.09 Fair CLR 16.7 12.2 75% 75.74 1009.6
02 18:55 NW 19 16.09 Fair CLR 18.9 12.2 65% 75.72 1009.3
02 17:55 NW 20 16.09 Fair CLR 21.7 13.3 59% 75.72 1009.4
02 16:55 NW 11 16.09 Fair CLR 22.8 13.9 23.3 19.4 57% 75.72 1009.3
02 15:55 NW 11 16.09 Fair CLR 22.8 13.9 57% 75.77 1010.2
02 14:55 W 13 16.09 Fair CLR 22.2 13.3 57% 75.84 1011.0
02 13:55 W 15 16.09 Fair CLR 22.8 12.8 53% 75.9 1011.7
02 12:55 W 17 G 28 16.09 Fair CLR 21.1 12.8 59% 75.92 1012.3
02 11:55 Vrbl 9 16.09 Fair CLR 21.7 13.9 61% 75.95 1012.4
02 10:55 Vrbl 11 16.09 Fair CLR 19.4 13.9 20 11.1 71% 75.95 1012.5
02 09:55 W 15 16.09 Fair CLR 17.2 13.3 78% 75.95 1012.5
02 08:55 N 11 16.09 Fair CLR 16.1 13.3 84% 75.92 1012.2
02 07:55 NW 9 16.09 Fair CLR 13.9 13.3 96% 75.9 1011.9
02 06:55 NW 9 16.09 Fair CLR 12.8 12.8 100% 75.87 1011.4
02 05:55 N 7 16.09 Fair CLR 11.7 11.7 100% 75.82 1010.9
02 04:55 NW 9 16.09 Fair CLR 12.2 12.2 16.7 11.7 100% 75.82 1010.7
02 03:55 NW 11 16.09 Fair CLR 12.2 12.2 100% 75.84 1011.0
02 02:55 N 9 16.09 Fair CLR 12.2 12.2 100% 75.84 1011.1
02 01:55 NW 11 16.09 Fair CLR 13.3 12.2 93% 75.87 1011.5
02 00:55 NW 13 16.09 Fair CLR 13.9 12.8 93% 75.9 1011.6
01 23:55 NW 9 16.09 Fair CLR 15 12.8 87% 75.87 1011.6
01 22:55 NW 11 16.09 Fair CLR 16.7 12.8 27.8 16.7 78% 75.87 1011.5
01 21:55 W 13 16.09 Fair CLR 18.3 12.8 70% 75.87 1011.5
01 20:55 NW 11 16.09 Fair CLR 19.4 15 76% 75.84 1011.0
01 19:55 NW 15 16.09 Fair CLR 22.2 15 64% 75.77 1010.2
01 18:55 NW 11 16.09 Fair CLR 26.1 12.8 44% 26 75.77 1010.0
01 17:55 NW 11 16.09 Fair CLR 27.2 12.8 41% 27 75.77 1010.0
01 16:55 W 11 16.09 Fair CLR 27.2 14.4 28.9 22.2 45% 27 75.79 1010.4
01 15:55 NW 15 16.09 Fair CLR 28.3 13.9 41% 28 75.84 1011.0
01 14:55 W 13 16.09 Fair CLR 28.3 14.4 43% 28 75.9 1011.8
01 13:55 W 9 16.09 Fair CLR 27.2 13.9 44% 27 75.95 1012.3
01 12:55 W 11 16.09 Fair CLR 25.6 13.9 48% 26 75.97 1012.8
01 11:55 W 15 16.09 Fair CLR 24.4 12.8 48% 26 76.05 1013.6
01 10:55 Calm 16.09 Fair CLR 21.7 12.2 22.2 10 55% 76.07 1014.0
01 09:55 Vrbl 7 16.09 Fair CLR 20 12.2 61% 76.07 1014.1
01 08:55 Calm 16.09 Fair CLR 17.2 12.2 73% 76.07 1014.0
01 07:55 W 11 16.09 Fair CLR 15 12.2 83% 76.05 1013.8
01 06:55 W 17 16.09 Fair CLR 12.8 11.7 93% 76 1012.9
01 05:55 W 11 16.09 Fair CLR 11.1 11.1 100% 75.95 1012.5
01 04:55 SW 6 16.09 Fair CLR 10.6 10 16.1 10 96% 75.95 1012.3
01 03:55 NE 6 16.09 Fair CLR 12.8 10.6 87% 75.92 1012.1
01 02:55 N 7 16.09 Fair CLR 12.8 10 83% 75.92 1012.0
01 01:55 NW 9 16.09 Fair CLR 13.3 10.6 84% 75.92 1012.0
01 00:55 NW 11 16.09 Fair CLR 13.3 10 81% 75.95 1012.3
30 23:55 NW 9 16.09 Fair CLR 15 10 72% 75.92 1012.2
30 22:55 W 11 16.09 Fair CLR 16.1 10 28.3 16.1 67% 75.92 1012.0
30 21:55 W 13 16.09 Fair CLR 17.2 11.1 68% 75.92 1012.0
30 20:55 W 13 16.09 Fair CLR 19.4 11.7 61% 75.9 1011.6
30 19:55 W 19 16.09 Fair CLR 22.2 15 64% 75.82 1010.8
Date Time (pdt) Wind (kph) Vis. (km) Weather Sky Cond. Air Dwpt Max. Min. Relative Humidity Wind Chill (°C) Heat Index (°C) altimeter (cm) sea level (mb) 1 hr 3 hr 6 hr
6 hour
Temperature (ºC) Pressure Precipitation (cm)